sensor_id;sensor_type;location;lat;lon;timestamp;P1;P2;P0
65383;PMS5003;51986;52.788;41.368;2023-05-10T00:01:05;30.00;26.00;21.00
65383;PMS5003;51986;52.788;41.368;2023-05-10T00:03:32;29.50;26.00;21.00
65383;PMS5003;51986;52.788;41.368;2023-05-10T00:05:59;30.00;26.00;21.00
65383;PMS5003;51986;52.788;41.368;2023-05-10T00:08:26;29.50;25.50;21.00
65383;PMS5003;51986;52.788;41.368;2023-05-10T00:10:53;31.75;27.00;22.75
65383;PMS5003;51986;52.788;41.368;2023-05-10T00:13:20;29.00;25.00;20.00
65383;PMS5003;51986;52.788;41.368;2023-05-10T00:15:47;29.50;25.50;21.00
65383;PMS5003;51986;52.788;41.368;2023-05-10T00:18:14;30.00;25.50;21.00
65383;PMS5003;51986;52.788;41.368;2023-05-10T00:20:41;29.00;25.00;21.00
65383;PMS5003;51986;52.788;41.368;2023-05-10T00:23:08;30.00;26.00;21.00
65383;PMS5003;51986;52.788;41.368;2023-05-10T00:25:35;30.00;25.50;21.00
65383;PMS5003;51986;52.788;41.368;2023-05-10T00:28:01;30.00;26.00;21.00
65383;PMS5003;51986;52.788;41.368;2023-05-10T00:30:29;30.00;26.00;21.00
65383;PMS5003;51986;52.788;41.368;2023-05-10T00:32:56;32.00;27.00;21.00
65383;PMS5003;51986;52.788;41.368;2023-05-10T00:35:23;27.00;24.00;19.00
65383;PMS5003;51986;52.788;41.368;2023-05-10T00:37:50;28.75;25.50;21.00
65383;PMS5003;51986;52.788;41.368;2023-05-10T00:40:17;29.00;26.00;21.00
65383;PMS5003;51986;52.788;41.368;2023-05-10T00:42:48;30.00;25.50;21.00
65383;PMS5003;51986;52.788;41.368;2023-05-10T00:45:15;31.00;26.75;21.00
65383;PMS5003;51986;52.788;41.368;2023-05-10T00:47:42;30.50;26.00;21.00
65383;PMS5003;51986;52.788;41.368;2023-05-10T00:50:09;27.00;24.00;20.00
65383;PMS5003;51986;52.788;41.368;2023-05-10T00:52:36;28.00;25.00;21.00
65383;PMS5003;51986;52.788;41.368;2023-05-10T00:55:03;25.00;22.25;19.00
65383;PMS5003;51986;52.788;41.368;2023-05-10T00:57:32;28.00;25.00;20.00
65383;PMS5003;51986;52.788;41.368;2023-05-10T00:59:59;29.25;25.00;20.00
65383;PMS5003;51986;52.788;41.368;2023-05-10T01:02:26;29.00;25.00;20.75
65383;PMS5003;51986;52.788;41.368;2023-05-10T01:04:53;30.00;25.00;21.00
65383;PMS5003;51986;52.788;41.368;2023-05-10T01:07:20;29.00;25.50;21.00
65383;PMS5003;51986;52.788;41.368;2023-05-10T01:09:47;30.00;26.00;21.00
65383;PMS5003;51986;52.788;41.368;2023-05-10T01:12:14;30.00;25.00;21.00
65383;PMS5003;51986;52.788;41.368;2023-05-10T01:14:41;29.50;25.50;21.00
65383;PMS5003;51986;52.788;41.368;2023-05-10T01:17:09;30.00;26.00;21.00
65383;PMS5003;51986;52.788;41.368;2023-05-10T01:19:38;30.00;26.00;21.00
65383;PMS5003;51986;52.788;41.368;2023-05-10T01:22:30;30.00;26.00;21.00
65383;PMS5003;51986;52.788;41.368;2023-05-10T01:25:32;30.00;25.00;21.00
65383;PMS5003;51986;52.788;41.368;2023-05-10T01:33:35;25.00;22.50;19.00
65383;PMS5003;51986;52.788;41.368;2023-05-10T01:38:49;29.00;25.00;21.00
65383;PMS5003;51986;52.788;41.368;2023-05-10T01:46:48;27.00;24.00;19.75
65383;PMS5003;51986;52.788;41.368;2023-05-10T01:49:29;28.00;25.00;20.25
65383;PMS5003;51986;52.788;41.368;2023-05-10T01:52:06;30.00;26.00;21.00
65383;PMS5003;51986;52.788;41.368;2023-05-10T01:54:37;30.00;25.50;20.75
65383;PMS5003;51986;52.788;41.368;2023-05-10T01:57:08;29.50;25.00;20.50
65383;PMS5003;51986;52.788;41.368;2023-05-10T01:59:37;31.00;26.00;21.00
65383;PMS5003;51986;52.788;41.368;2023-05-10T02:02:06;30.00;25.50;21.00
65383;PMS5003;51986;52.788;41.368;2023-05-10T02:04:35;26.00;22.50;19.00
65383;PMS5003;51986;52.788;41.368;2023-05-10T02:07:05;25.75;23.00;19.00
65383;PMS5003;51986;52.788;41.368;2023-05-10T02:09:34;28.00;24.00;20.00
65383;PMS5003;51986;52.788;41.368;2023-05-10T02:12:03;29.00;26.00;21.00
65383;PMS5003;51986;52.788;41.368;2023-05-10T02:14:34;31.00;26.00;21.00
65383;PMS5003;51986;52.788;41.368;2023-05-10T02:17:04;31.00;26.00;21.00
65383;PMS5003;51986;52.788;41.368;2023-05-10T02:19:34;31.00;27.00;21.00
65383;PMS5003;51986;52.788;41.368;2023-05-10T02:22:04;30.00;26.00;21.50
65383;PMS5003;51986;52.788;41.368;2023-05-10T02:24:32;31.00;27.00;21.00
65383;PMS5003;51986;52.788;41.368;2023-05-10T02:27:01;31.00;27.00;22.00
65383;PMS5003;51986;52.788;41.368;2023-05-10T02:29:30;31.00;26.00;21.00
65383;PMS5003;51986;52.788;41.368;2023-05-10T02:31:59;31.00;26.00;22.00
65383;PMS5003;51986;52.788;41.368;2023-05-10T02:34:26;31.00;26.00;21.50
65383;PMS5003;51986;52.788;41.368;2023-05-10T02:36:54;32.00;27.00;21.50
65383;PMS5003;51986;52.788;41.368;2023-05-10T02:39:22;27.50;24.25;20.00
65383;PMS5003;51986;52.788;41.368;2023-05-10T02:41:51;28.00;24.00;20.75
65383;PMS5003;51986;52.788;41.368;2023-05-10T02:44:19;30.75;26.00;21.00
65383;PMS5003;51986;52.788;41.368;2023-05-10T02:46:48;30.25;26.00;21.00
65383;PMS5003;51986;52.788;41.368;2023-05-10T02:49:16;31.00;26.00;21.00
65383;PMS5003;51986;52.788;41.368;2023-05-10T02:51:55;30.00;26.00;21.00
65383;PMS5003;51986;52.788;41.368;2023-05-10T02:54:26;31.00;27.00;22.00
65383;PMS5003;51986;52.788;41.368;2023-05-10T02:56:57;30.50;26.00;21.50
65383;PMS5003;51986;52.788;41.368;2023-05-10T02:59:26;33.00;28.00;23.00
65383;PMS5003;51986;52.788;41.368;2023-05-10T03:01:54;32.00;28.00;22.00
65383;PMS5003;51986;52.788;41.368;2023-05-10T03:04:21;32.50;27.50;23.00
65383;PMS5003;51986;52.788;41.368;2023-05-10T03:06:49;34.00;29.00;23.50
65383;PMS5003;51986;52.788;41.368;2023-05-10T03:09:17;32.00;27.00;22.00
65383;PMS5003;51986;52.788;41.368;2023-05-10T03:17:22;35.00;30.00;24.00
65383;PMS5003;51986;52.788;41.368;2023-05-10T03:19:57;36.00;30.00;24.00
65383;PMS5003;51986;52.788;41.368;2023-05-10T03:22:49;36.00;30.00;24.00
65383;PMS5003;51986;52.788;41.368;2023-05-10T03:25:23;34.50;29.50;23.50
65383;PMS5003;51986;52.788;41.368;2023-05-10T03:27:52;36.25;31.00;25.00
65383;PMS5003;51986;52.788;41.368;2023-05-10T03:30:19;36.50;30.75;25.00
65383;PMS5003;51986;52.788;41.368;2023-05-10T03:32:46;36.50;31.00;25.50
65383;PMS5003;51986;52.788;41.368;2023-05-10T03:35:16;36.00;31.00;25.00
65383;PMS5003;51986;52.788;41.368;2023-05-10T03:37:43;37.00;32.00;25.50
65383;PMS5003;51986;52.788;41.368;2023-05-10T03:40:10;37.00;32.00;26.00
65383;PMS5003;51986;52.788;41.368;2023-05-10T03:42:40;38.00;32.00;25.50
65383;PMS5003;51986;52.788;41.368;2023-05-10T03:45:07;35.00;30.00;24.00
65383;PMS5003;51986;52.788;41.368;2023-05-10T03:47:35;35.50;30.00;25.00
65383;PMS5003;51986;52.788;41.368;2023-05-10T03:50:02;35.00;30.00;24.00
65383;PMS5003;51986;52.788;41.368;2023-05-10T03:52:30;35.25;30.00;24.00
65383;PMS5003;51986;52.788;41.368;2023-05-10T03:54:56;35.00;30.00;24.00
65383;PMS5003;51986;52.788;41.368;2023-05-10T03:57:23;34.50;30.00;24.00
65383;PMS5003;51986;52.788;41.368;2023-05-10T03:59:50;36.00;30.50;24.50
65383;PMS5003;51986;52.788;41.368;2023-05-10T04:02:17;35.50;30.50;24.50
65383;PMS5003;51986;52.788;41.368;2023-05-10T04:04:44;36.00;30.00;25.00
65383;PMS5003;51986;52.788;41.368;2023-05-10T04:07:11;35.00;29.00;23.50
65383;PMS5003;51986;52.788;41.368;2023-05-10T04:09:39;35.00;29.00;24.00
65383;PMS5003;51986;52.788;41.368;2023-05-10T04:12:06;33.75;28.50;23.50
65383;PMS5003;51986;52.788;41.368;2023-05-10T04:14:36;33.50;29.00;23.00
65383;PMS5003;51986;52.788;41.368;2023-05-10T04:17:03;33.00;29.00;23.00
65383;PMS5003;51986;52.788;41.368;2023-05-10T04:19:30;34.50;29.00;24.00
65383;PMS5003;51986;52.788;41.368;2023-05-10T04:21:58;33.75;28.00;23.00
65383;PMS5003;51986;52.788;41.368;2023-05-10T04:24:25;33.50;28.25;23.00
65383;PMS5003;51986;52.788;41.368;2023-05-10T04:26:53;33.00;28.00;22.00
65383;PMS5003;51986;52.788;41.368;2023-05-10T04:29:23;32.00;28.00;22.00
65383;PMS5003;51986;52.788;41.368;2023-05-10T04:31:50;33.00;28.25;23.00
65383;PMS5003;51986;52.788;41.368;2023-05-10T04:34:17;33.00;28.00;23.00
65383;PMS5003;51986;52.788;41.368;2023-05-10T04:36:44;32.50;27.00;22.00
65383;PMS5003;51986;52.788;41.368;2023-05-10T04:39:11;33.00;28.00;23.00
65383;PMS5003;51986;52.788;41.368;2023-05-10T04:41:39;34.00;27.00;22.00
65383;PMS5003;51986;52.788;41.368;2023-05-10T04:44:06;31.00;27.00;22.00
65383;PMS5003;51986;52.788;41.368;2023-05-10T04:46:33;31.00;27.00;22.00
65383;PMS5003;51986;52.788;41.368;2023-05-10T04:49:00;32.25;27.25;22.00
65383;PMS5003;51986;52.788;41.368;2023-05-10T04:51:27;31.00;27.00;22.00
65383;PMS5003;51986;52.788;41.368;2023-05-10T04:53:54;32.00;27.00;22.00
65383;PMS5003;51986;52.788;41.368;2023-05-10T04:56:31;32.50;27.50;22.00
65383;PMS5003;51986;52.788;41.368;2023-05-10T04:58:58;32.00;27.50;22.00
65383;PMS5003;51986;52.788;41.368;2023-05-10T05:01:25;31.50;27.00;22.00
65383;PMS5003;51986;52.788;41.368;2023-05-10T05:03:52;32.00;27.75;22.25
65383;PMS5003;51986;52.788;41.368;2023-05-10T05:06:19;33.00;28.50;23.00
65383;PMS5003;51986;52.788;41.368;2023-05-10T05:08:46;35.00;29.00;23.00
65383;PMS5003;51986;52.788;41.368;2023-05-10T05:11:13;33.00;28.00;23.00
65383;PMS5003;51986;52.788;41.368;2023-05-10T05:13:40;33.00;28.00;22.50
65383;PMS5003;51986;52.788;41.368;2023-05-10T05:16:07;31.50;27.00;22.00
65383;PMS5003;51986;52.788;41.368;2023-05-10T05:18:34;32.00;28.00;23.00
65383;PMS5003;51986;52.788;41.368;2023-05-10T05:21:01;32.25;28.00;23.00
65383;PMS5003;51986;52.788;41.368;2023-05-10T05:23:28;33.00;28.00;22.50
65383;PMS5003;51986;52.788;41.368;2023-05-10T05:25:55;33.00;28.00;22.00
65383;PMS5003;51986;52.788;41.368;2023-05-10T05:28:22;33.00;28.00;23.00
65383;PMS5003;51986;52.788;41.368;2023-05-10T05:30:49;33.00;28.00;23.00
65383;PMS5003;51986;52.788;41.368;2023-05-10T05:33:16;34.00;29.00;24.00
65383;PMS5003;51986;52.788;41.368;2023-05-10T05:35:43;34.00;28.00;23.00
65383;PMS5003;51986;52.788;41.368;2023-05-10T05:38:10;34.75;29.25;24.00
65383;PMS5003;51986;52.788;41.368;2023-05-10T05:40:37;34.00;29.00;23.00
65383;PMS5003;51986;52.788;41.368;2023-05-10T05:43:04;34.00;28.00;23.00
65383;PMS5003;51986;52.788;41.368;2023-05-10T05:45:31;34.50;30.00;24.00
65383;PMS5003;51986;52.788;41.368;2023-05-10T05:47:58;33.50;28.50;23.00
65383;PMS5003;51986;52.788;41.368;2023-05-10T05:50:25;33.00;29.00;22.50
65383;PMS5003;51986;52.788;41.368;2023-05-10T05:52:52;35.00;29.00;23.00
65383;PMS5003;51986;52.788;41.368;2023-05-10T05:55:19;34.50;29.00;23.75
65383;PMS5003;51986;52.788;41.368;2023-05-10T05:57:46;35.00;29.00;24.00
65383;PMS5003;51986;52.788;41.368;2023-05-10T06:00:13;34.50;29.00;23.00
65383;PMS5003;51986;52.788;41.368;2023-05-10T06:02:40;35.00;29.00;24.00
65383;PMS5003;51986;52.788;41.368;2023-05-10T06:05:07;33.50;28.50;23.00
65383;PMS5003;51986;52.788;41.368;2023-05-10T06:07:34;34.25;29.00;23.50
65383;PMS5003;51986;52.788;41.368;2023-05-10T06:10:01;34.50;29.50;24.00
65383;PMS5003;51986;52.788;41.368;2023-05-10T06:12:28;34.00;29.00;24.00
65383;PMS5003;51986;52.788;41.368;2023-05-10T06:14:55;34.00;29.00;23.50
65383;PMS5003;51986;52.788;41.368;2023-05-10T06:17:22;35.00;30.00;24.00
65383;PMS5003;51986;52.788;41.368;2023-05-10T06:19:49;35.00;30.00;24.00
65383;PMS5003;51986;52.788;41.368;2023-05-10T06:22:16;36.00;30.50;24.00
65383;PMS5003;51986;52.788;41.368;2023-05-10T06:24:43;34.50;29.50;24.00
65383;PMS5003;51986;52.788;41.368;2023-05-10T06:27:10;34.00;29.00;23.00
65383;PMS5003;51986;52.788;41.368;2023-05-10T06:29:37;33.00;28.00;23.00
65383;PMS5003;51986;52.788;41.368;2023-05-10T06:32:04;32.50;27.50;22.50
65383;PMS5003;51986;52.788;41.368;2023-05-10T06:34:31;33.75;29.00;24.00
65383;PMS5003;51986;52.788;41.368;2023-05-10T06:36:58;34.00;29.50;24.00
65383;PMS5003;51986;52.788;41.368;2023-05-10T06:39:25;35.00;30.00;24.00
65383;PMS5003;51986;52.788;41.368;2023-05-10T06:41:52;35.00;30.00;24.00
65383;PMS5003;51986;52.788;41.368;2023-05-10T06:44:19;36.00;30.00;24.00
65383;PMS5003;51986;52.788;41.368;2023-05-10T06:46:45;35.00;29.50;24.00
65383;PMS5003;51986;52.788;41.368;2023-05-10T06:49:12;36.00;30.00;24.00
65383;PMS5003;51986;52.788;41.368;2023-05-10T06:51:39;34.50;29.50;23.00
65383;PMS5003;51986;52.788;41.368;2023-05-10T06:54:06;35.50;30.00;24.00
65383;PMS5003;51986;52.788;41.368;2023-05-10T06:56:33;35.50;30.25;24.50
65383;PMS5003;51986;52.788;41.368;2023-05-10T06:59:00;36.25;31.00;25.00
65383;PMS5003;51986;52.788;41.368;2023-05-10T07:01:27;35.50;30.50;24.00
65383;PMS5003;51986;52.788;41.368;2023-05-10T07:03:54;35.75;30.00;24.00
65383;PMS5003;51986;52.788;41.368;2023-05-10T07:06:21;35.50;30.00;24.50
65383;PMS5003;51986;52.788;41.368;2023-05-10T07:08:59;36.00;30.25;25.00
65383;PMS5003;51986;52.788;41.368;2023-05-10T07:11:26;37.00;31.00;25.00
65383;PMS5003;51986;52.788;41.368;2023-05-10T07:13:53;35.50;29.50;24.00
65383;PMS5003;51986;52.788;41.368;2023-05-10T07:16:20;34.00;29.00;24.00
65383;PMS5003;51986;52.788;41.368;2023-05-10T07:18:47;32.00;28.00;23.00
65383;PMS5003;51986;52.788;41.368;2023-05-10T07:21:14;33.00;28.50;23.00
65383;PMS5003;51986;52.788;41.368;2023-05-10T07:23:41;34.00;29.50;24.00
65383;PMS5003;51986;52.788;41.368;2023-05-10T07:26:10;33.50;29.00;24.00
65383;PMS5003;51986;52.788;41.368;2023-05-10T07:28:37;33.25;29.00;23.50
65383;PMS5003;51986;52.788;41.368;2023-05-10T07:31:04;35.50;30.25;24.50
65383;PMS5003;51986;52.788;41.368;2023-05-10T07:33:31;36.00;30.00;24.00
65383;PMS5003;51986;52.788;41.368;2023-05-10T07:35:58;34.50;29.50;24.00
65383;PMS5003;51986;52.788;41.368;2023-05-10T07:38:25;34.50;29.50;23.50
65383;PMS5003;51986;52.788;41.368;2023-05-10T07:40:52;35.00;30.00;24.00
65383;PMS5003;51986;52.788;41.368;2023-05-10T07:43:19;35.00;29.50;24.00
65383;PMS5003;51986;52.788;41.368;2023-05-10T07:45:46;34.00;29.00;24.00
65383;PMS5003;51986;52.788;41.368;2023-05-10T07:48:13;33.00;29.00;24.00
65383;PMS5003;51986;52.788;41.368;2023-05-10T07:50:39;34.00;30.00;24.00
65383;PMS5003;51986;52.788;41.368;2023-05-10T07:53:06;34.50;30.00;24.00
65383;PMS5003;51986;52.788;41.368;2023-05-10T07:55:34;35.00;30.00;24.00
65383;PMS5003;51986;52.788;41.368;2023-05-10T07:58:01;35.00;29.25;23.25
65383;PMS5003;51986;52.788;41.368;2023-05-10T08:00:28;35.00;29.50;24.00
65383;PMS5003;51986;52.788;41.368;2023-05-10T08:02:55;34.50;29.50;24.50
65383;PMS5003;51986;52.788;41.368;2023-05-10T08:05:22;34.00;29.00;24.00
65383;PMS5003;51986;52.788;41.368;2023-05-10T08:07:49;34.00;29.75;24.00
65383;PMS5003;51986;52.788;41.368;2023-05-10T08:10:16;35.00;29.50;24.00
65383;PMS5003;51986;52.788;41.368;2023-05-10T08:12:43;35.75;30.50;24.75
65383;PMS5003;51986;52.788;41.368;2023-05-10T08:15:10;34.00;30.00;24.00
65383;PMS5003;51986;52.788;41.368;2023-05-10T08:17:37;36.00;30.00;25.00
65383;PMS5003;51986;52.788;41.368;2023-05-10T08:20:04;35.00;30.00;25.00
65383;PMS5003;51986;52.788;41.368;2023-05-10T08:22:31;35.75;30.00;25.00
65383;PMS5003;51986;52.788;41.368;2023-05-10T08:24:58;36.00;30.00;25.00
65383;PMS5003;51986;52.788;41.368;2023-05-10T08:27:25;35.50;30.00;24.00
65383;PMS5003;51986;52.788;41.368;2023-05-10T08:29:52;34.25;29.75;24.00
65383;PMS5003;51986;52.788;41.368;2023-05-10T08:32:19;35.00;30.00;25.00
65383;PMS5003;51986;52.788;41.368;2023-05-10T08:34:46;35.25;30.25;25.00
65383;PMS5003;51986;52.788;41.368;2023-05-10T08:37:13;36.00;31.00;25.00
65383;PMS5003;51986;52.788;41.368;2023-05-10T08:39:40;34.00;30.00;24.25
65383;PMS5003;51986;52.788;41.368;2023-05-10T08:42:07;35.00;30.00;24.50
65383;PMS5003;51986;52.788;41.368;2023-05-10T08:44:36;33.50;29.50;23.50
65383;PMS5003;51986;52.788;41.368;2023-05-10T08:47:06;34.00;29.00;24.00
65383;PMS5003;51986;52.788;41.368;2023-05-10T08:49:35;34.00;29.00;24.00
65383;PMS5003;51986;52.788;41.368;2023-05-10T08:52:04;33.00;28.00;24.00
65383;PMS5003;51986;52.788;41.368;2023-05-10T08:54:33;33.00;28.00;23.00
65383;PMS5003;51986;52.788;41.368;2023-05-10T08:57:00;32.00;28.00;23.50
65383;PMS5003;51986;52.788;41.368;2023-05-10T08:59:28;33.00;28.75;23.50
65383;PMS5003;51986;52.788;41.368;2023-05-10T09:01:56;34.00;30.00;25.00
65383;PMS5003;51986;52.788;41.368;2023-05-10T09:04:24;34.00;29.00;24.00
65383;PMS5003;51986;52.788;41.368;2023-05-10T09:06:51;34.25;30.00;24.00
65383;PMS5003;51986;52.788;41.368;2023-05-10T09:09:19;34.00;29.00;24.00
65383;PMS5003;51986;52.788;41.368;2023-05-10T09:11:46;34.00;29.00;23.50
65383;PMS5003;51986;52.788;41.368;2023-05-10T09:14:14;35.00;29.50;24.00
65383;PMS5003;51986;52.788;41.368;2023-05-10T09:16:41;33.50;28.50;23.50
65383;PMS5003;51986;52.788;41.368;2023-05-10T09:19:09;34.00;29.50;24.00
65383;PMS5003;51986;52.788;41.368;2023-05-10T09:21:36;34.50;29.25;24.00
65383;PMS5003;51986;52.788;41.368;2023-05-10T09:24:04;34.50;30.00;24.00
65383;PMS5003;51986;52.788;41.368;2023-05-10T09:26:32;35.00;29.50;24.00
65383;PMS5003;51986;52.788;41.368;2023-05-10T09:28:59;34.25;30.00;24.00
65383;PMS5003;51986;52.788;41.368;2023-05-10T09:31:49;35.00;30.00;24.00
65383;PMS5003;51986;52.788;41.368;2023-05-10T09:34:18;35.75;30.75;25.00
65383;PMS5003;51986;52.788;41.368;2023-05-10T09:36:52;35.00;30.00;24.00
65383;PMS5003;51986;52.788;41.368;2023-05-10T09:39:30;36.00;30.00;24.00
65383;PMS5003;51986;52.788;41.368;2023-05-10T09:42:04;35.50;30.00;24.00
65383;PMS5003;51986;52.788;41.368;2023-05-10T09:44:35;35.25;30.00;24.00
65383;PMS5003;51986;52.788;41.368;2023-05-10T09:47:03;35.00;30.00;24.00
65383;PMS5003;51986;52.788;41.368;2023-05-10T09:49:30;34.00;29.00;23.50
65383;PMS5003;51986;52.788;41.368;2023-05-10T09:52:04;36.00;30.75;24.75
65383;PMS5003;51986;52.788;41.368;2023-05-10T09:54:33;37.00;31.50;25.00
65383;PMS5003;51986;52.788;41.368;2023-05-10T09:57:00;36.00;31.00;25.00
65383;PMS5003;51986;52.788;41.368;2023-05-10T09:59:28;36.00;31.00;25.00
65383;PMS5003;51986;52.788;41.368;2023-05-10T10:01:56;35.50;30.00;25.00
65383;PMS5003;51986;52.788;41.368;2023-05-10T10:04:27;36.00;30.75;25.00
65383;PMS5003;51986;52.788;41.368;2023-05-10T10:06:59;36.25;31.25;25.00
65383;PMS5003;51986;52.788;41.368;2023-05-10T10:09:28;36.75;31.25;25.00
65383;PMS5003;51986;52.788;41.368;2023-05-10T10:11:55;37.00;32.00;25.00
65383;PMS5003;51986;52.788;41.368;2023-05-10T10:14:23;36.00;31.00;25.00
65383;PMS5003;51986;52.788;41.368;2023-05-10T10:16:50;36.00;31.00;25.00
65383;PMS5003;51986;52.788;41.368;2023-05-10T10:19:32;37.00;32.00;25.00
65383;PMS5003;51986;52.788;41.368;2023-05-10T10:22:00;36.00;31.00;25.00
65383;PMS5003;51986;52.788;41.368;2023-05-10T10:24:27;37.00;31.00;25.00
65383;PMS5003;51986;52.788;41.368;2023-05-10T10:26:55;36.00;30.00;25.00
65383;PMS5003;51986;52.788;41.368;2023-05-10T10:33:24;35.00;30.00;25.00
65383;PMS5003;51986;52.788;41.368;2023-05-10T10:35:45;34.50;29.00;24.00
65383;PMS5003;51986;52.788;41.368;2023-05-10T10:38:13;35.00;30.00;24.50
65383;PMS5003;51986;52.788;41.368;2023-05-10T10:40:40;35.50;30.00;25.00
65383;PMS5003;51986;52.788;41.368;2023-05-10T10:43:26;35.00;31.00;24.50
65383;PMS5003;51986;52.788;41.368;2023-05-10T10:48:36;36.00;30.50;25.00
65383;PMS5003;51986;52.788;41.368;2023-05-10T10:51:03;36.00;31.00;25.00
65383;PMS5003;51986;52.788;41.368;2023-05-10T10:53:30;36.00;31.00;25.00
65383;PMS5003;51986;52.788;41.368;2023-05-10T10:56:08;36.00;31.00;25.00
65383;PMS5003;51986;52.788;41.368;2023-05-10T10:58:38;37.00;32.00;26.00
65383;PMS5003;51986;52.788;41.368;2023-05-10T11:03:54;36.50;31.00;25.00
65383;PMS5003;51986;52.788;41.368;2023-05-10T11:06:41;35.50;30.25;25.00
65383;PMS5003;51986;52.788;41.368;2023-05-10T11:09:09;36.00;31.00;25.00
65383;PMS5003;51986;52.788;41.368;2023-05-10T11:11:52;37.00;31.00;25.00
65383;PMS5003;51986;52.788;41.368;2023-05-10T11:14:21;36.75;31.75;25.00
65383;PMS5003;51986;52.788;41.368;2023-05-10T11:16:48;37.00;31.75;26.00
65383;PMS5003;51986;52.788;41.368;2023-05-10T11:19:16;37.00;31.00;25.00
65383;PMS5003;51986;52.788;41.368;2023-05-10T11:24:37;37.00;31.00;25.00
65383;PMS5003;51986;52.788;41.368;2023-05-10T11:27:04;37.00;31.00;25.00
65383;PMS5003;51986;52.788;41.368;2023-05-10T11:29:32;36.00;31.00;25.00
65383;PMS5003;51986;52.788;41.368;2023-05-10T11:31:59;36.00;31.00;25.00
65383;PMS5003;51986;52.788;41.368;2023-05-10T11:34:27;37.00;31.25;25.00
65383;PMS5003;51986;52.788;41.368;2023-05-10T11:36:58;36.00;31.00;25.00
65383;PMS5003;51986;52.788;41.368;2023-05-10T11:39:30;36.00;30.50;24.50
65383;PMS5003;51986;52.788;41.368;2023-05-10T11:41:57;34.50;29.25;24.00
65383;PMS5003;51986;52.788;41.368;2023-05-10T11:44:31;33.50;29.00;23.00
65383;PMS5003;51986;52.788;41.368;2023-05-10T11:46:59;34.50;29.25;24.25
65383;PMS5003;51986;52.788;41.368;2023-05-10T11:49:27;36.00;30.50;25.00
65383;PMS5003;51986;52.788;41.368;2023-05-10T11:52:03;35.00;30.00;24.50
65383;PMS5003;51986;52.788;41.368;2023-05-10T11:54:34;34.00;30.00;24.00
65383;PMS5003;51986;52.788;41.368;2023-05-10T11:57:01;34.00;29.50;24.00
65383;PMS5003;51986;52.788;41.368;2023-05-10T11:59:28;35.00;30.00;24.25
65383;PMS5003;51986;52.788;41.368;2023-05-10T12:01:55;36.00;31.00;25.00
65383;PMS5003;51986;52.788;41.368;2023-05-10T12:04:22;37.00;31.00;25.00
65383;PMS5003;51986;52.788;41.368;2023-05-10T12:06:50;37.00;31.00;25.75
65383;PMS5003;51986;52.788;41.368;2023-05-10T12:09:17;36.00;31.00;25.00
65383;PMS5003;51986;52.788;41.368;2023-05-10T12:11:57;36.00;31.00;25.00
65383;PMS5003;51986;52.788;41.368;2023-05-10T12:14:24;36.00;31.00;26.00
65383;PMS5003;51986;52.788;41.368;2023-05-10T12:16:51;35.25;30.25;25.00
65383;PMS5003;51986;52.788;41.368;2023-05-10T12:19:18;36.00;31.00;25.00
65383;PMS5003;51986;52.788;41.368;2023-05-10T12:21:46;36.00;30.50;24.50
65383;PMS5003;51986;52.788;41.368;2023-05-10T12:24:13;35.00;30.00;24.00
65383;PMS5003;51986;52.788;41.368;2023-05-10T12:26:40;35.75;30.75;24.50
65383;PMS5003;51986;52.788;41.368;2023-05-10T12:29:25;35.50;30.00;24.00
65383;PMS5003;51986;52.788;41.368;2023-05-10T12:31:55;35.00;29.50;24.00
65383;PMS5003;51986;52.788;41.368;2023-05-10T12:34:27;35.00;29.50;24.00
65383;PMS5003;51986;52.788;41.368;2023-05-10T12:36:58;36.00;30.50;25.00
65383;PMS5003;51986;52.788;41.368;2023-05-10T12:39:25;36.00;31.00;25.00
65383;PMS5003;51986;52.788;41.368;2023-05-10T12:41:52;35.00;30.00;24.00
65383;PMS5003;51986;52.788;41.368;2023-05-10T12:44:19;35.00;30.00;24.00
65383;PMS5003;51986;52.788;41.368;2023-05-10T12:46:46;34.75;29.75;24.00
65383;PMS5003;51986;52.788;41.368;2023-05-10T12:49:13;35.00;30.00;24.00
65383;PMS5003;51986;52.788;41.368;2023-05-10T12:51:40;35.50;29.50;24.00
65383;PMS5003;51986;52.788;41.368;2023-05-10T12:54:07;35.00;30.00;24.00
65383;PMS5003;51986;52.788;41.368;2023-05-10T12:56:34;35.75;30.50;24.75
65383;PMS5003;51986;52.788;41.368;2023-05-10T12:59:01;37.00;31.00;25.00
65383;PMS5003;51986;52.788;41.368;2023-05-10T13:01:28;36.00;31.00;25.00
65383;PMS5003;51986;52.788;41.368;2023-05-10T13:03:55;36.00;31.00;25.00
65383;PMS5003;51986;52.788;41.368;2023-05-10T13:06:22;35.50;30.50;24.50
65383;PMS5003;51986;52.788;41.368;2023-05-10T13:08:48;36.00;31.00;25.00
65383;PMS5003;51986;52.788;41.368;2023-05-10T13:11:15;34.50;29.50;23.50
65383;PMS5003;51986;52.788;41.368;2023-05-10T13:13:42;36.50;31.50;25.00
65383;PMS5003;51986;52.788;41.368;2023-05-10T13:16:09;35.50;30.50;24.50
65383;PMS5003;51986;52.788;41.368;2023-05-10T13:18:36;36.50;30.50;24.50
65383;PMS5003;51986;52.788;41.368;2023-05-10T13:21:03;35.75;30.50;24.50
65383;PMS5003;51986;52.788;41.368;2023-05-10T13:23:30;36.00;31.00;25.00
65383;PMS5003;51986;52.788;41.368;2023-05-10T13:25:57;35.50;30.00;25.00
65383;PMS5003;51986;52.788;41.368;2023-05-10T13:28:24;33.00;28.00;23.00
65383;PMS5003;51986;52.788;41.368;2023-05-10T13:30:51;37.00;31.00;25.00
65383;PMS5003;51986;52.788;41.368;2023-05-10T13:33:18;36.50;31.00;25.50
65383;PMS5003;51986;52.788;41.368;2023-05-10T13:35:45;36.50;31.00;25.00
65383;PMS5003;51986;52.788;41.368;2023-05-10T13:38:12;36.00;30.50;25.00
65383;PMS5003;51986;52.788;41.368;2023-05-10T13:40:39;35.00;30.00;24.75
65383;PMS5003;51986;52.788;41.368;2023-05-10T13:43:06;35.00;30.00;25.00
65383;PMS5003;51986;52.788;41.368;2023-05-10T13:45:35;36.00;31.00;25.00
65383;PMS5003;51986;52.788;41.368;2023-05-10T13:48:02;36.00;31.00;25.00
65383;PMS5003;51986;52.788;41.368;2023-05-10T13:50:30;35.00;30.00;25.00
65383;PMS5003;51986;52.788;41.368;2023-05-10T13:52:57;34.75;30.00;25.00
65383;PMS5003;51986;52.788;41.368;2023-05-10T13:55:23;35.00;30.00;25.00
65383;PMS5003;51986;52.788;41.368;2023-05-10T13:57:50;35.75;30.00;25.00
65383;PMS5003;51986;52.788;41.368;2023-05-10T14:00:17;34.75;29.75;24.00
65383;PMS5003;51986;52.788;41.368;2023-05-10T14:02:45;34.00;29.00;24.00
65383;PMS5003;51986;52.788;41.368;2023-05-10T14:05:12;34.25;30.00;24.00
65383;PMS5003;51986;52.788;41.368;2023-05-10T14:07:39;33.00;28.50;23.00
65383;PMS5003;51986;52.788;41.368;2023-05-10T14:10:06;35.00;30.00;24.25
65383;PMS5003;51986;52.788;41.368;2023-05-10T14:12:33;33.00;28.00;23.00